Latest Weather Observations for Dunalley

IDT60801

Issued at 5:05 pm EDT Friday 31 October 2014 (issued every 30 minutes, with the page automatically refreshed every 10 minutes)

About weather observations | Map of weather stations | Latest weather observations for TAS | Other Formats
Station Details ID: 094254 Name: DUNALLEY (STROUD POINT) Lat: -42.90 Lon: 147.79 Height: 12.43 m
Data from the previous 72 hours. | See also: Recent months at Dunalley
Date/Time
EDT
Temp
°C
App
Temp
°C
Dew
Point
Rel
Hum
%
Delta-T
°C
Wind Press
QNH
hPa
Press
MSL
hPa
Rain
since 9 am
mm
Dir
 
Spd
km/h
Gust
km/h
Spd
kts
Gust
kts
31/05:00pm 17.2 14.3 12.3 73 2.7 ENE 19 22 10 12 997.4 997.4 0.0
31/04:30pm 17.4 15.7 12.5 73 2.7 NNE 13 26 7 14 997.8 997.8 0.0
31/04:00pm 17.5 16.5 12.2 71 2.9 NNW 9 11 5 6 998.5 998.5 0.0
31/03:30pm 17.3 16.5 11.1 67 3.3 NNW 6 7 3 4 999.4 999.4 0.0
31/03:00pm 17.6 16.8 11.6 68 3.3 NW 7 11 4 6 999.6 999.6 0.0
31/02:30pm 18.8 16.5 10.4 58 4.5 N 13 22 7 12 1000.4 1000.4 0.0
31/02:00pm 18.3 16.9 10.9 62 4.0 ENE 9 15 5 8 1000.3 1000.3 0.0
31/01:30pm 16.7 14.4 10.3 66 3.4 NE 13 19 7 10 1000.7 1000.7 0.0
31/01:00pm 15.8 12.6 9.9 68 3.1 ENE 17 22 9 12 1001.1 1001.1 0.0
31/12:30pm 15.3 12.5 9.9 70 2.8 NNE 15 19 8 10 1001.8 1001.8 0.0
31/12:00pm 15.5 12.6 8.0 61 3.8 N 13 19 7 10 1001.8 1001.8 0.0
31/11:30am 15.8 14.1 8.3 61 3.8 N 7 11 4 6 1002.5 1002.5 0.0
31/11:00am 15.6 14.0 8.6 63 3.6 N 7 11 4 6 1003.0 1003.0 0.0
31/10:30am 15.4 12.5 8.2 62 3.6 N 13 20 7 11 1003.5 1003.5 0.0
31/10:00am 14.7 11.6 7.3 61 3.7 N 13 20 7 11 1003.9 1003.9 0.0
31/09:30am 14.2 10.8 7.5 64 3.3 NNW 15 24 8 13 1004.1 1004.1 0.0
31/09:00am 14.3 11.7 7.8 65 3.2 N 11 19 6 10 1004.3 1004.3 0.0
31/08:30am 15.1 12.2 8.3 64 3.4 N 13 26 7 14 1004.7 1004.7 0.0
31/08:00am 13.4 9.3 7.8 69 2.8 N 19 26 10 14 1004.8 1004.8 0.0
31/07:30am 12.6 8.2 7.3 70 2.6 NNW 20 28 11 15 1004.9 1004.9 0.0
31/07:00am 12.1 8.6 7.4 73 2.3 N 15 24 8 13 1004.9 1004.9 0.0
31/06:30am 12.5 8.2 7.2 70 2.6 NNW 19 26 10 14 1004.9 1004.9 0.0
31/06:00am 12.2 9.4 6.9 70 2.5 N 11 17 6 9 1005.0 1005.0 0.0
31/05:30am 12.9 10.4 6.7 66 3.0 N 9 15 5 8 1005.1 1005.1 0.0
31/05:00am 13.1 10.3 7.1 67 2.9 NNW 11 15 6 8 1005.4 1005.4 0.0
31/04:30am 12.9 10.1 7.1 68 2.8 NNW 11 15 6 8 1005.6 1005.6 0.0
31/04:00am 12.8 10.1 7.3 69 2.7 NNW 11 17 6 9 1005.8 1005.8 0.0
31/03:30am 11.0 9.2 8.1 82 1.4 NNW 7 11 4 6 1006.0 1006.0 0.0
31/03:00am 11.2 9.6 8.8 85 1.2 NNW 7 9 4 5 1006.4 1006.4 0.0
31/02:30am 11.4 9.9 9.3 87 1.1 NNW 7 11 4 6 1006.6 1006.6 0.0
31/02:00am 11.8 10.3 8.5 80 1.6 NNW 6 7 3 4 1006.9 1006.9 0.0
31/01:30am 13.1 10.7 7.1 67 2.9 NNW 9 13 5 7 1007.3 1007.3 0.0
31/01:00am 13.3 10.2 7.3 67 2.9 NNW 13 20 7 11 1007.7 1007.7 0.0
31/12:30am 12.0 9.2 7.1 72 2.4 NNW 11 17 6 9 1008.0 1008.0 0.0
31/12:00am 12.4 10.1 7.3 71 2.5 NNW 9 15 5 8 1008.2 1008.2 0.0
 
Date/Time
EDT
Temp
°C
App
Temp
°C
Dew
Point
Rel
Hum
%
Delta-T
°C
Wind Press
QNH
hPa
Press
MSL
hPa
Rain
since 9 am
mm
Dir
 
Spd
km/h
Gust
km/h
Spd
kts
Gust
kts
30/11:30pm 12.1 10.1 7.2 72 2.4 NNW 7 11 4 6 1008.5 1008.5 0.0
30/11:00pm 11.2 9.5 7.7 79 1.7 NNW 6 7 3 4 1008.5 1008.5 0.0
30/10:30pm 12.4 10.9 6.9 69 2.6 NNW 4 7 2 4 1008.7 1008.7 0.0
30/10:00pm 12.7 10.2 6.7 67 2.9 NNW 9 13 5 7 1008.7 1008.7 0.0
30/09:30pm 12.7 10.2 6.5 66 3.0 NNW 9 15 5 8 1008.7 1008.7 0.0
30/09:00pm 12.7 9.6 7.2 69 2.7 N 13 20 7 11 1008.8 1008.8 0.0
30/08:30pm 11.6 8.8 10.0 90 0.8 NE 15 17 8 9 1008.6 1008.6 0.0
30/08:00pm 11.9 8.8 10.3 90 0.8 NE 17 20 9 11 1008.4 1008.4 0.0
30/07:30pm 12.0 10.1 10.4 90 0.8 NE 11 13 6 7 1008.2 1008.2 0.0
30/07:00pm 11.9 9.1 10.1 89 0.9 NE 15 19 8 10 1008.0 1008.0 0.0
30/06:30pm 12.3 9.2 10.4 88 1.0 NE 17 22 9 12 1007.9 1007.9 0.0
30/06:00pm 12.0 8.4 9.9 87 1.1 ENE 19 24 10 13 1007.8 1007.8 0.0
30/05:30pm 12.4 8.9 10.1 86 1.2 NE 19 22 10 12 1007.6 1007.6 0.0
30/05:00pm 13.1 9.7 10.5 84 1.4 NE 19 24 10 13 1007.6 1007.6 0.0
30/04:30pm 12.5 9.3 10.0 85 1.3 ENE 17 20 9 11 1007.7 1007.7 0.0
30/04:00pm 13.1 10.4 10.5 84 1.4 NE 15 17 8 9 1007.6 1007.6 0.0
30/03:30pm 12.8 10.1 10.2 84 1.3 NE 15 19 8 10 1007.4 1007.4 0.0
30/03:00pm 13.4 11.5 10.4 82 1.6 SSE 11 13 6 7 1007.1 1007.1 0.0
30/02:30pm 13.4 12.4 10.4 82 1.6 SSE 6 7 3 4 1007.3 1007.3 0.0
30/02:00pm 13.1 12.3 9.7 80 1.7 SSE 4 6 2 3 1007.2 1007.2 0.0
30/01:30pm 13.3 12.1 9.7 79 1.8 SSE 6 7 3 4 1007.2 1007.2 0.0
30/01:00pm 13.3 11.8 10.7 84 1.4 SSE 9 11 5 6 1007.4 1007.4 0.0
30/12:30pm 13.9 11.7 10.9 82 1.6 S 13 17 7 9 1007.2 1007.2 0.0
30/12:00pm 12.1 8.4 10.3 89 0.9 S 20 24 11 13 1007.7 1007.7 0.0
30/11:30am 12.8 9.8 10.5 86 1.2 S 17 22 9 12 1007.5 1007.5 0.0
30/11:00am 13.2 10.1 10.4 83 1.5 S 17 22 9 12 1007.5 1007.5 0.0
30/10:30am 14.7 10.0 9.3 70 2.8 WSW 24 28 13 15 1007.2 1007.2 0.0
30/10:00am 15.3 12.0 8.1 62 3.6 W 15 22 8 12 1007.2 1007.2 0.0
30/09:30am 15.3 11.9 7.8 61 3.7 WNW 15 22 8 12 1007.2 1007.2 0.0
30/09:00am 14.4 10.6 7.5 63 3.4 WNW 17 20 9 11 1007.2 1007.2 0.0
30/08:30am 14.0 10.6 7.8 66 3.1 WNW 15 24 8 13 1007.2 1007.2 0.0
30/08:00am 13.4 9.9 7.4 67 2.9 NW 15 20 8 11 1007.1 1007.1 0.0
30/07:30am 13.1 9.2 7.3 68 2.8 WNW 17 26 9 14 1006.8 1006.8 0.0
30/07:00am 12.8 9.3 7.3 69 2.7 NW 15 24 8 13 1006.5 1006.5 0.0
30/06:30am 12.5 9.0 7.2 70 2.6 NW 15 26 8 14 1006.1 1006.1 0.0
30/06:00am 12.6 7.7 7.1 69 2.7 NW 22 35 12 19 1006.0 1006.0 0.0
30/05:30am 12.2 7.6 6.7 69 2.6 NW 20 28 11 15 1005.8 1005.8 0.0
30/05:00am 12.3 8.3 6.6 68 2.7 NW 17 26 9 14 1005.7 1005.7 0.0
30/04:30am 12.5 7.5 6.5 67 2.9 WNW 22 33 12 18 1006.1 1006.1 0.0
30/04:00am 12.5 6.4 6.5 67 2.9 WNW 28 41 15 22 1005.6 1005.6 0.0
30/03:30am 12.7 6.6 6.7 67 2.9 WNW 28 43 15 23 1005.7 1005.7 0.0
30/03:00am 13.0 5.9 6.6 65 3.1 WNW 33 48 18 26 1005.6 1005.6 0.0
30/02:30am 13.1 7.4 6.9 66 3.0 WNW 26 37 14 20 1005.8 1005.8 0.0
30/02:00am 12.9 7.6 6.7 66 3.0 WNW 24 35 13 19 1006.2 1006.2 0.0
30/01:30am 13.1 8.5 6.7 65 3.1 WNW 20 30 11 16 1006.2 1006.2 0.0
30/01:00am 13.0 9.4 6.8 66 3.0 NW 15 26 8 14 1006.2 1006.2 0.0
30/12:30am 12.9 9.8 7.1 68 2.8 NW 13 22 7 12 1006.8 1006.8 0.0
30/12:00am 13.4 9.4 6.7 64 3.2 NW 17 30 9 16 1006.8 1006.8 0.0
 
Date/Time
EDT
Temp
°C
App
Temp
°C
Dew
Point
Rel
Hum
%
Delta-T
°C
Wind Press
QNH
hPa
Press
MSL
hPa
Rain
since 9 am
mm
Dir
 
Spd
km/h
Gust
km/h
Spd
kts
Gust
kts
29/11:30pm 13.2 9.3 7.2 67 2.9 WNW 17 22 9 12 1006.7 1006.7 0.0
29/11:00pm 13.3 9.0 7.1 66 3.0 WNW 19 30 10 16 1006.8 1006.8 0.0
29/10:30pm 13.6 10.0 6.7 63 3.3 WNW 15 22 8 12 1006.8 1006.8 0.0
29/10:00pm 13.9 9.8 6.0 59 3.8 WNW 17 26 9 14 1006.8 1006.8 0.0
29/09:30pm 14.0 8.9 6.1 59 3.8 WNW 22 35 12 19 1006.8 1006.8 0.0
29/09:00pm 14.2 8.9 6.6 60 3.7 WNW 24 41 13 22 1006.7 1006.7 0.0
29/08:30pm 14.8 8.4 7.1 60 3.8 WNW 30 44 16 24 1006.3 1006.3 0.0
29/08:00pm 15.0 7.9 6.6 57 4.1 WNW 33 46 18 25 1005.8 1005.8 0.0
29/07:36pm 15.5 8.5 6.2 54 4.5 WNW 32 52 17 28 1005.4 1005.4 0.0
29/07:30pm 15.7 8.6 6.4 54 4.5 WNW 33 50 18 27 1005.3 1005.3 0.0
29/07:00pm 16.7 9.7 5.9 49 5.3 W 32 50 17 27 1005.0 1005.0 0.0
29/06:30pm 17.5 10.1 6.7 49 5.4 W 35 59 19 32 1005.0 1005.0 0.0
29/06:27pm 17.6 11.2 6.8 49 5.4 W 30 59 16 32 1004.9 1004.9 0.0
29/06:00pm 18.3 13.3 6.5 46 5.9 W 22 37 12 20 1005.4 1005.4 0.0
29/05:30pm 18.4 11.1 7.2 48 5.6 W 35 50 19 27 1005.5 1005.5 0.0
29/05:13pm 18.3 11.2 6.5 46 5.9 W 33 57 18 31 1005.4 1005.4 0.0
29/05:00pm 18.6 11.1 6.1 44 6.2 W 35 50 19 27 1005.3 1005.3 0.0
29/04:54pm 19.1 12.2 6.6 44 6.3 W 32 50 17 27 1005.3 1005.3 0.0
29/04:30pm 18.5 12.2 7.3 48 5.7 W 30 39 16 21 1005.3 1005.3 0.0
29/04:21pm 17.7 13.3 9.1 57 4.5 WSW 22 30 12 16 1005.5 1005.5 0.0
29/04:00pm 18.2 10.4 6.7 47 5.7 W 37 57 20 31 1005.5 1005.5 0.0
29/03:45pm 18.8 11.5 7.3 47 5.8 W 35 59 19 32 1005.3 1005.3 0.0
29/03:30pm 19.0 11.7 7.4 47 5.9 WNW 35 52 19 28 1005.4 1005.4 0.0
29/03:00pm 19.0 11.3 7.1 46 6.0 WNW 37 52 20 28 1005.7 1005.7 0.0
29/02:31pm 18.4 11.9 6.6 46 5.9 WNW 30 50 16 27 1006.0 1006.0 0.0
29/02:30pm 18.5 12.0 6.7 46 5.9 W 30 48 16 26 1006.1 1006.1 0.0
29/02:09pm 18.4 11.3 6.6 46 5.9 WNW 33 52 18 28 1006.3 1006.3 0.0
29/02:00pm 17.9 10.0 6.4 47 5.7 WNW 37 54 20 29 1006.3 1006.3 0.0
29/01:30pm 17.4 10.4 6.9 50 5.2 WNW 33 48 18 26 1006.9 1006.9 0.0
29/01:00pm 16.5 9.0 6.3 51 5.0 WNW 35 54 19 29 1007.3 1007.3 0.0
29/12:55pm 16.5 9.5 6.1 50 5.1 WNW 32 54 17 29 1007.4 1007.4 0.0
29/12:30pm 16.2 9.1 6.6 53 4.7 WNW 33 46 18 25 1007.5 1007.5 0.0
29/12:00pm 16.1 9.7 6.8 54 4.6 WNW 30 44 16 24 1007.9 1007.9 0.0
29/11:41am 16.5 10.4 6.6 52 4.9 WNW 28 46 15 25 1008.2 1008.2 0.0
29/11:30am 16.4 11.0 7.9 57 4.3 WNW 26 44 14 24 1008.3 1008.3 0.0
29/11:00am 14.4 9.8 6.3 58 3.9 NW 20 30 11 16 1008.8 1008.8 0.0
29/10:30am 13.7 8.2 6.1 60 3.6 WNW 24 33 13 18 1009.2 1009.2 0.0
29/10:00am 12.5 7.2 5.0 60 3.5 NW 22 37 12 20 1009.5 1009.5 0.0
29/09:30am 12.9 8.0 4.3 56 3.9 WNW 19 32 10 17 1009.4 1009.4 0.0
29/09:00am 12.7 7.7 4.7 58 3.7 WNW 20 33 11 18 1009.3 1009.3 1.0
29/08:30am 12.1 6.5 3.3 55 3.9 WNW 22 41 12 22 1009.3 1009.3 1.0
29/08:00am 11.1 6.8 3.4 59 3.4 NW 15 30 8 16 1009.2 1009.2 1.0
29/07:30am 9.9 4.3 3.2 63 2.9 WNW 22 32 12 17 1009.2 1009.2 1.0
29/07:00am 9.5 4.2 3.0 64 2.8 WNW 20 28 11 15 1009.1 1009.1 1.0
29/06:30am 8.5 3.6 2.1 64 2.7 N 17 22 9 12 1009.2 1009.2 1.0
29/06:00am 7.6 3.0 1.7 66 2.4 WNW 15 17 8 9 1008.7 1008.7 1.0
29/05:43am 8.1 3.4 1.0 61 2.9 WNW 15 22 8 12 1008.4 1008.4 1.0
29/05:30am 9.8 1.0 3.5 65 2.7 W 39 46 21 25 1007.9 1007.9 1.0
29/05:00am 9.7 2.0 3.4 65 2.7 WSW 33 41 18 22 1007.8 1007.8 1.0
29/04:30am 9.9 1.9 3.6 65 2.7 WSW 35 44 19 24 1007.8 1007.8 1.0
29/04:00am 10.0 1.6 3.5 64 2.8 WSW 37 44 20 24 1007.6 1007.6 1.0
29/03:30am 9.6 1.0 2.5 61 3.0 WSW 37 43 20 23 1007.2 1007.2 1.0
29/03:00am 9.7 -0.1 2.3 60 3.1 WSW 43 50 23 27 1007.2 1007.2 1.0
29/02:30am 9.7 -1.5 1.8 58 3.3 WSW 50 59 27 32 1006.9 1006.9 1.0
29/02:00am 9.9 -3.3 2.3 59 3.2 WSW 61 74 33 40 1006.6 1006.6 1.0
29/01:30am 9.8 -2.5 2.9 62 3.0 WSW 57 69 31 37 1006.4 1006.4 1.0
29/01:00am 9.4 -2.3 3.4 66 2.6 WSW 54 63 29 34 1006.3 1006.3 1.0
29/12:30am 9.3 -3.6 4.1 70 2.3 WSW 61 78 33 42 1006.0 1006.0 1.0
29/12:00am 8.9 -3.5 4.5 74 2.0 W 59 74 32 40 1005.5 1005.5 1.0
 
Date/Time
EDT
Temp
°C
App
Temp
°C
Dew
Point
Rel
Hum
%
Delta-T
°C
Wind Press
QNH
hPa
Press
MSL
hPa
Rain
since 9 am
mm
Dir
 
Spd
km/h
Gust
km/h
Spd
kts
Gust
kts
28/11:30pm 8.6 -3.8 4.4 75 1.8 W 59 76 32 41 1005.1 1005.1 1.0
28/11:11pm 8.4 -4.2 3.8 73 2.0 W 59 82 32 44 1004.8 1004.8 1.0
28/11:00pm 8.0 -3.6 3.7 74 1.9 W 54 69 29 37 1004.9 1004.9 1.0
28/10:30pm 8.5 -4.0 3.9 73 2.0 W 59 74 32 40 1004.7 1004.7 1.0
28/10:00pm 8.4 -3.7 4.0 74 1.9 W 57 78 31 42 1004.2 1004.2 1.0
28/09:31pm 8.4 -4.9 3.7 72 2.0 W 63 82 34 44 1003.3 1003.3 1.0
28/09:30pm 8.7 -4.9 4.3 74 1.9 W 65 82 35 44 1003.2 1003.2 1.0
28/09:21pm 9.0 -5.6 4.0 71 2.2 W 70 83 38 45 1002.9 1002.9 1.0
28/09:00pm 8.4 -2.5 3.7 72 2.0 W 50 69 27 37 1002.3 1002.3 1.0
28/08:57pm 8.4 -2.5 3.7 72 2.0 W 50 69 27 37 1002.2 1002.2 1.0
28/08:52pm 8.3 -1.4 3.8 73 1.9 W 44 56 24 30 1002.2 1002.2 1.0
28/08:36pm 8.8 -5.1 4.8 76 1.8 W 67 87 36 47 1001.8 1001.8 1.0
28/08:30pm 8.8 -6.1 4.4 74 1.9 W 72 82 39 44 1001.3 1001.3 1.0
28/08:26pm 8.8 -2.3 4.6 75 1.9 W 52 70 28 38 1001.4 1001.4 1.0
28/08:22pm 9.0 -1.2 5.4 78 1.6 W 48 57 26 31 1001.4 1001.4 1.0
28/08:01pm 8.6 -6.3 4.4 75 1.8 W 72 91 39 49 1000.4 1000.4 1.0
28/08:00pm 8.6 -6.7 4.2 74 1.9 W 74 93 40 50 1000.4 1000.4 1.0
28/07:46pm 9.7 -3.8 4.7 71 2.2 WSW 65 87 35 47 1000.0 1000.0 1.0
28/07:30pm 9.6 -4.3 4.8 72 2.1 WSW 67 82 36 44 999.5 999.5 1.0
28/07:08pm 10.5 -4.3 3.1 60 3.2 W 70 98 38 53 998.5 998.5 1.0
28/07:00pm 10.9 -3.7 3.2 59 3.4 W 69 83 37 45 998.1 998.1 1.0
28/06:30pm 11.2 -3.1 2.8 56 3.6 W 67 95 36 51 997.2 997.2 1.0
28/06:03pm 11.7 -2.9 3.0 55 3.8 W 69 89 37 48 996.7 996.7 1.0
28/06:00pm 11.6 -3.1 3.4 57 3.6 W 70 89 38 48 996.6 996.6 1.0
28/05:32pm 11.6 -0.8 2.4 53 4.0 W 57 76 31 41 996.3 996.3 1.0
28/05:30pm 11.9 -1.0 3.9 58 3.6 W 61 76 33 41 996.1 996.1 1.0
28/05:11pm 11.8 -2.2 2.3 52 4.1 W 65 83 35 45 995.6 995.6 1.0

Other Formats:

Comma delimited format used in spreadsheet applications
http://www.bom.gov.au/fwo/IDT60801/IDT60801.94951.axf

JavaScript Object Notation format (JSON) in row-major order
http://www.bom.gov.au/fwo/IDT60801/IDT60801.94951.json